Flight Track Log - Related Links

Times and Time Zones

All times are in EDT time to prevent confusion due to time zone crossing. See the AWI3704 flight status page for this flight to view local times or setup timezone preferences in your user account.

Time Position Orientation Groundspeed Altitude Reporting Facility
EDT Latitude Longitude Course Direction KTS MPH feet Rate Location/Type
Sat 09:52:04 AM 39.8833 -75.2167 37° Northeast 150 173 800  Level Philadelphia TRACON
Sat 09:52:35 AM 39.8667 -75.1833 123° Southeast 182 209 1,700 2,176 Climbing Philadelphia TRACON
Sat 09:53:35 AM 39.8667 -75.1167 90° East 237 273 4,100 2,135 Climbing Philadelphia TRACON
Sat 09:54:00 AM 39.8167 -74.9055 90° East  Level FlightAware Approximate
Sat 09:55:00 AM 39.8020 -74.7930 105° East  Level FlightAware Approximate
Sat 09:55:18 AM 39.8350 -74.9556 104° East 277 319 7,500  Level New York Center
Sat 09:56:00 AM 39.7949 -74.6885 37° Northeast  Level FlightAware Approximate
Sat 09:56:15 AM 39.8175 -74.8628 104° East 294 338 9,600  Level New York Center
Sat 09:57:00 AM 39.8650 -74.6184 37° Northeast  Level FlightAware Approximate
Sat 09:57:15 AM 39.8025 -74.7511 100° East 300 345 10,800  Level New York Center
Sat 09:58:17 AM 39.8558 -74.6539 54° Northeast 298 343 12,700 1,900 Climbing New York Center
Sat 09:59:15 AM 39.9356 -74.5744 37° Northeast 309 356 14,600 1,750 Climbing New York Center
Sat 10:00:17 AM 40.0258 -74.4872 36° Northeast 343 395 16,200 1,450 Climbing New York Center
Sat 10:01:15 AM 40.0989 -74.4181 36° Northeast 361 415 17,500 1,068 Climbing New York Center
Sat 10:02:15 AM 40.1806 -74.3381 37° Northeast 367 422 18,300 850 Climbing New York Center
Sat 10:03:15 AM 40.2644 -74.2472 40° Northeast 379 436 19,200 942 Climbing New York Center
Sat 10:04:16 AM 40.3525 -74.1644 36° Northeast 379 436 20,200 934 Climbing New York Center
Sat 10:05:17 AM 40.4383 -74.0758 38° Northeast 379 436 21,100 1,088 Climbing New York Center
Sat 10:07:07 AM 40.6292 -73.9606 25° Northeast 370 426 23,300 1,024 Climbing Boston Center
Sat 10:08:07 AM 40.7300 -73.9053 23° Northeast 370 426 24,000 318 Climbing Boston Center
Sat 10:09:19 AM 40.8183 -73.8361 31° Northeast 370 426 24,000 -45 Level Boston Center
Sat 10:10:19 AM 40.9114 -73.7228 43° Northeast 379 436 23,900 -500 Descending Boston Center
Sat 10:11:19 AM 40.9875 -73.6197 46° Northeast 379 436 23,000 -450 Descending Boston Center
Sat 10:12:19 AM 41.0839 -73.5775 18° North 360 414 23,000 -400 Level Boston Center
Sat 10:13:19 AM 41.1781 -73.5322 20° North 353 406 22,200 -850 Descending Boston Center
Sat 10:14:19 AM 41.2556 -73.4975 19° North 353 406 21,300 -1,050 Descending Boston Center
Sat 10:15:19 AM 41.3681 -73.5022 358° North 334 384 20,100 -1,100 Descending Boston Center
Sat 10:16:19 AM 41.4597 -73.5036 359° North 329 379 19,100 -1,000 Descending Boston Center
Sat 10:17:19 AM 41.5408 -73.5050 359° North 318 366 18,100 -950 Descending Boston Center
Sat 10:18:19 AM 41.6408 -73.5122 357° North 328 377 17,200 -1,000 Descending Boston Center
Sat 10:19:19 AM 41.7200 -73.5136 359° North 328 377 16,100 -1,200 Descending Boston Center
Sat 10:20:19 AM 41.8181 -73.5181 358° North 317 365 14,800 -1,200 Descending Boston Center
Sat 10:21:19 AM 41.8950 -73.5194 359° North 312 359 13,700 -1,213 Descending Boston Center
Sat 10:21:53 AM 41.9556 -73.5233 357° North 314 361 12,900 -1,345 Descending Boston Center
Sat 10:22:17 AM 41.9908 -73.5211 North 315 362 12,400 -1,200 Descending Boston Center
Sat 10:23:18 AM 42.0764 -73.5281 357° North 310 357 11,200 -639 Descending Boston Center
Sat 10:24:19 AM 42.1597 -73.5183 North 306 352 11,100 -248 Descending Boston Center
Sat 10:25:19 AM 42.2325 -73.5533 340° North 291 335 10,700 -1,300 Descending Boston Center
Sat 10:26:19 AM 42.2964 -73.6050 329° Northwest 270 311 8,500 -2,150 Descending Boston Center
Sat 10:27:19 AM 42.3628 -73.6483 334° Northwest 264 304 6,400 -1,734 Descending Boston Center
Sat 10:28:27 AM 42.4369 -73.7089 329° Northwest 276 318 4,800 -1,200 Descending Boston Center
Sat 10:29:19 AM 42.4928 -73.7494 332° Northwest 269 310 4,000 -911 Descending Boston Center
Sat 10:30:19 AM 42.5569 -73.7931 333° Northwest 264 304 3,100 -900 Descending Boston Center

Login

Don't have an account? Register now (free) for customized features, flight alerts, and more!